KCAD/CAD METAR and TAF weather

Enter ICAO airport designator
Station Type Date Time Source
KCAD METAR 2020/09/19 05:55 UTC NOAA

KCAD 190555Z AUTO 00000KT 10SM CLR M01/M02 A3039 RMK AO2 T10141021 10071 21015 401341015


Station Type Date Time Source
KCAD Decoded METAR 2020/09/19 05:55 UTC NOAA

Cadillac / Wexford County, MI, United States (KCAD) 44-17N 085-25W
Sep 19, 2020 - 01:55 AM EDT / 2020.09.19 0555 UTC
Wind: Calm:0
Visibility: 10 mile(s):0
Sky conditions: clear
Temperature: 29.5 F (-1.4 C)
Dew Point: 28.2 F (-2.1 C)
Relative Humidity: 94%
Pressure (altimeter): 30.39 in. Hg (1029 hPa)
ob: KCAD 190555Z AUTO 00000KT 10SM CLR M01/M02 A3039 RMK AO2 T10141021 10071 21015 401341015
cycle: 6

Station Type Date Time Source
KCAD TAF UTC NOAA

Error!

Example: see airport list